Time,TemperatureF,DewpointF,PressureIn,WindDirection,WindDirectionDegrees,WindSpeedMPH,WindSpeedGustMPH,Humidity,HourlyPrecipIn,Conditions,Clouds,dailyrainin,SoftwareType,DateUTC
2013-05-25 01:32:00,47.0,37.0,-100.00,North,-999,-999.0,-999.0,69,0.00,,,-99.99,,2013-05-25 05:32:00,
2013-05-25 01:43:00,47.0,37.0,-100.00,North,-999,-999.0,-999.0,69,0.00,,,-99.99,,2013-05-25 05:43:00,
2013-05-25 02:02:00,47.0,38.0,-100.00,South,175,4.0,7.0,72,0.00,,,-99.99,,2013-05-25 06:02:00,
2013-05-25 02:12:00,46.0,38.0,-100.00,South,190,6.0,7.0,71,0.00,,,-99.99,,2013-05-25 06:12:00,
2013-05-25 02:22:00,47.0,38.0,-100.00,SSW,205,2.0,7.0,72,0.00,,,-99.99,,2013-05-25 06:22:00,
2013-05-25 02:32:00,46.0,38.0,-100.00,SW,215,7.0,7.0,73,0.00,,,-99.99,,2013-05-25 06:32:00,
2013-05-25 02:42:00,46.0,38.0,-100.00,SSW,205,2.0,7.0,74,0.00,,,-99.99,,2013-05-25 06:42:00,
2013-05-25 02:52:00,46.0,38.0,-100.00,SSW,205,4.0,6.0,73,0.00,,,-99.99,,2013-05-25 06:52:00,
2013-05-25 03:01:00,47.0,38.0,-100.00,SW,215,4.0,6.0,73,0.00,,,-99.99,,2013-05-25 07:01:00,
2013-05-25 03:11:00,47.0,38.0,-100.00,SSW,210,4.0,6.0,73,0.00,,,-99.99,,2013-05-25 07:11:00,
2013-05-25 03:21:00,47.0,39.0,-100.00,SSW,210,1.0,4.0,72,0.00,,,-99.99,,2013-05-25 07:21:00,
2013-05-25 03:32:00,47.0,39.0,-100.00,WNW,300,2.0,5.0,73,0.00,,,-99.99,,2013-05-25 07:32:00,
2013-05-25 03:42:00,47.0,40.0,-100.00,NE,45,1.0,2.0,75,0.00,,,-99.99,,2013-05-25 07:42:00,
2013-05-25 03:52:00,47.0,40.0,-100.00,East,85,1.0,4.0,76,0.00,,,-99.99,,2013-05-25 07:52:00,
2013-05-25 04:02:00,46.0,39.0,-100.00,NNW,340,2.0,4.0,77,0.00,,,-99.99,,2013-05-25 08:02:00,
2013-05-25 04:11:00,46.0,39.0,-100.00,North,0,2.0,4.0,77,0.00,,,-99.99,,2013-05-25 08:11:00,
2013-05-25 04:22:00,46.0,39.0,-100.00,North,5,2.0,4.0,79,0.00,,,-99.99,,2013-05-25 08:22:00,
2013-05-25 04:32:00,46.0,39.0,-100.00,NW,305,4.0,7.0,76,0.00,,,-99.99,,2013-05-25 08:32:00,
2013-05-25 04:42:00,46.0,38.0,-100.00,NNW,335,2.0,4.0,73,0.00,,,-99.99,,2013-05-25 08:42:00,
2013-05-25 04:51:00,46.0,39.0,-100.00,NW,310,2.0,4.0,75,0.00,,,-99.99,,2013-05-25 08:51:00,
2013-05-25 05:02:00,44.0,38.0,-100.00,West,270,6.0,7.0,81,0.00,,,-99.99,,2013-05-25 09:02:00,
2013-05-25 05:11:00,44.0,39.0,-100.00,WNW,295,2.0,7.0,82,0.00,,,-99.99,,2013-05-25 09:11:00,
2013-05-25 05:21:00,44.0,39.0,-100.00,WNW,285,2.0,6.0,82,0.00,,,-99.99,,2013-05-25 09:21:00,
2013-05-25 05:33:00,44.0,39.0,-100.00,WNW,300,2.0,4.0,81,0.00,,,-99.99,,2013-05-25 09:33:00,
2013-05-25 05:43:00,44.0,39.0,-100.00,WNW,285,1.0,4.0,80,0.00,,,-99.99,,2013-05-25 09:43:00,
2013-05-25 05:52:00,45.0,39.0,-100.00,SW,215,2.0,3.0,81,0.00,,,-99.99,,2013-05-25 09:52:00,
2013-05-25 06:03:00,45.0,40.0,-100.00,West,280,1.0,2.0,81,0.00,,,-99.99,,2013-05-25 10:03:00,
2013-05-25 06:12:00,45.0,40.0,-100.00,West,280,1.0,4.0,82,0.00,,,-99.99,,2013-05-25 10:12:00,
2013-05-25 06:22:00,45.0,40.0,-100.00,WSW,240,1.0,3.0,84,0.00,,,-99.99,,2013-05-25 10:22:00,
2013-05-25 06:33:00,45.0,41.0,-100.00,West,270,1.0,4.0,84,0.00,,,-99.99,,2013-05-25 10:33:00,
2013-05-25 06:42:00,46.0,41.0,-100.00,West,275,1.0,4.0,83,0.00,,,-99.99,,2013-05-25 10:42:00,
2013-05-25 06:52:00,46.0,41.0,-100.00,WNW,285,1.0,4.0,82,0.00,,,-99.99,,2013-05-25 10:52:00,
2013-05-25 07:02:00,47.0,40.0,-100.00,WSW,240,1.0,4.0,79,0.00,,,-99.99,,2013-05-25 11:02:00,
2013-05-25 07:12:00,47.0,39.0,-100.00,West,280,1.0,4.0,76,0.00,,,-99.99,,2013-05-25 11:12:00,
2013-05-25 07:22:00,47.0,40.0,-100.00,WNW,285,1.0,5.0,77,0.00,,,-99.99,,2013-05-25 11:22:00,
2013-05-25 07:32:00,47.0,40.0,-100.00,WNW,300,2.0,5.0,75,0.00,,,-99.99,,2013-05-25 11:32:00,
2013-05-25 07:42:00,47.0,40.0,-100.00,WNW,295,1.0,4.0,74,0.00,,,-99.99,,2013-05-25 11:42:00,
2013-05-25 07:52:00,48.0,40.0,-100.00,WNW,290,1.0,4.0,72,0.00,,,-99.99,,2013-05-25 11:52:00,
2013-05-25 08:01:00,49.0,39.0,-100.00,NW,315,1.0,4.0,69,0.00,,,-99.99,,2013-05-25 12:01:00,
2013-05-25 08:12:00,49.0,39.0,-100.00,WNW,285,1.0,3.0,69,0.00,,,-99.99,,2013-05-25 12:12:00,
2013-05-25 08:22:00,49.0,39.0,-100.00,SSE,160,1.0,4.0,67,0.00,,,-99.99,,2013-05-25 12:22:00,
2013-05-25 08:32:00,50.0,39.0,-100.00,West,280,1.0,3.0,66,0.00,,,-99.99,,2013-05-25 12:32:00,
2013-05-25 08:42:00,51.0,39.0,-100.00,NW,305,2.0,5.0,64,0.00,,,-99.99,,2013-05-25 12:42:00,
2013-05-25 08:52:00,51.0,39.0,-100.00,East,80,2.0,4.0,64,0.00,,,-99.99,,2013-05-25 12:52:00,
2013-05-25 09:02:00,51.0,39.0,-100.00,ENE,70,2.0,4.0,64,0.00,,,-99.99,,2013-05-25 13:02:00,
2013-05-25 09:11:00,51.0,40.0,-100.00,ENE,65,2.0,5.0,65,0.00,,,-99.99,,2013-05-25 13:11:00,
2013-05-25 09:22:00,50.0,40.0,-100.00,NNE,25,4.0,7.0,68,0.00,,,-99.99,,2013-05-25 13:22:00,
2013-05-25 09:32:00,51.0,41.0,-100.00,NNE,15,2.0,7.0,67,0.00,,,-99.99,,2013-05-25 13:32:00,
2013-05-25 09:42:00,51.0,40.0,-100.00,ENE,70,1.0,3.0,66,0.00,,,-99.99,,2013-05-25 13:42:00,
2013-05-25 09:52:00,53.0,40.0,-100.00,WNW,300,1.0,4.0,63,0.00,,,-99.99,,2013-05-25 13:52:00,
2013-05-25 10:02:00,51.0,39.0,-100.00,NNE,20,3.0,-999.0,64,0.00,,,-99.99,,2013-05-25 14:02:00,
2013-05-25 10:11:00,51.0,39.0,-100.00,North,0,3.0,5.0,63,0.00,,,-99.99,,2013-05-25 14:11:00,
2013-05-25 10:22:00,52.0,39.0,-100.00,NE,35,3.0,9.0,61,0.00,,,-99.99,,2013-05-25 14:22:00,
2013-05-25 10:32:00,52.0,37.0,-100.00,ENE,75,7.0,10.0,57,0.00,,,-99.99,,2013-05-25 14:32:00,
2013-05-25 10:42:00,52.0,36.0,-100.00,ESE,120,4.0,11.0,55,0.00,,,-99.99,,2013-05-25 14:42:00,
2013-05-25 10:52:00,53.0,36.0,-100.00,NNE,20,4.0,9.0,51,0.00,,,-99.99,,2013-05-25 14:52:00,
2013-05-25 11:01:00,53.0,35.0,-100.00,NE,55,6.0,7.0,50,0.00,,,-99.99,,2013-05-25 15:01:00,
2013-05-25 11:11:00,54.0,35.0,-100.00,NNE,15,2.0,7.0,49,0.00,,,-99.99,,2013-05-25 15:11:00,
2013-05-25 11:22:00,54.0,34.0,-100.00,NNE,20,4.0,7.0,46,0.00,,,-99.99,,2013-05-25 15:22:00,
2013-05-25 11:33:00,55.0,36.0,-100.00,North,5,2.0,9.0,49,0.00,,,-99.99,,2013-05-25 15:33:00,
2013-05-25 11:43:00,54.0,36.0,-100.00,NNE,25,7.0,11.0,50,0.00,,,-99.99,,2013-05-25 15:43:00,
2013-05-25 11:53:00,53.0,35.0,-100.00,NE,35,9.0,14.0,50,0.00,,,-99.99,,2013-05-25 15:53:00,
2013-05-25 12:03:00,53.0,34.0,-100.00,NNE,20,8.0,15.0,47,0.00,,,-99.99,,2013-05-25 16:03:00,
2013-05-25 12:12:00,55.0,34.0,-100.00,East,90,2.0,11.0,45,0.00,,,-99.99,,2013-05-25 16:12:00,
2013-05-25 12:23:00,55.0,32.0,-100.00,NE,50,7.0,9.0,42,0.00,,,-99.99,,2013-05-25 16:23:00,
2013-05-25 12:32:00,56.0,32.0,-100.00,ENE,65,1.0,6.0,39,0.00,,,-99.99,,2013-05-25 16:32:00,
2013-05-25 12:42:00,56.0,35.0,-100.00,NE,45,3.0,6.0,43,0.00,,,-99.99,,2013-05-25 16:42:00,
2013-05-25 12:52:00,57.0,34.0,-100.00,NE,40,2.0,4.0,41,0.00,,,-99.99,,2013-05-25 16:52:00,
2013-05-25 13:03:00,56.0,35.0,-100.00,NE,50,4.0,10.0,45,0.00,,,-99.99,,2013-05-25 17:03:00,
2013-05-25 13:11:00,56.0,34.0,-100.00,NNE,25,5.0,9.0,42,0.00,,,-99.99,,2013-05-25 17:11:00,
2013-05-25 13:22:00,57.0,35.0,-100.00,East,100,4.0,12.0,43,0.00,,,-99.99,,2013-05-25 17:22:00,
2013-05-25 13:32:00,57.0,35.0,-100.00,NNE,20,7.0,10.0,44,0.00,,,-99.99,,2013-05-25 17:32:00,
2013-05-25 13:42:00,58.0,33.0,-100.00,SE,135,4.0,10.0,39,0.00,,,-99.99,,2013-05-25 17:42:00,
2013-05-25 13:52:00,59.0,35.0,-100.00,ESE,110,2.0,11.0,40,0.00,,,-99.99,,2013-05-25 17:52:00,
2013-05-25 14:02:00,59.0,34.0,-100.00,East,100,2.0,7.0,39,0.00,,,-99.99,,2013-05-25 18:02:00,
2013-05-25 14:11:00,58.0,35.0,-100.00,East,90,4.0,11.0,41,0.00,,,-99.99,,2013-05-25 18:11:00,
2013-05-25 14:21:00,59.0,34.0,-100.00,East,90,7.0,13.0,39,0.00,,,-99.99,,2013-05-25 18:21:00,
2013-05-25 14:32:00,58.0,33.0,-100.00,ESE,105,2.0,9.0,38,0.00,,,-99.99,,2013-05-25 18:32:00,
2013-05-25 14:42:00,60.0,34.0,-100.00,East,85,4.0,8.0,37,0.00,,,-99.99,,2013-05-25 18:42:00,
2013-05-25 14:52:00,59.0,33.0,-100.00,East,85,5.0,9.0,37,0.00,,,-99.99,,2013-05-25 18:52:00,
2013-05-25 15:02:00,59.0,33.0,-100.00,NE,45,7.0,10.0,36,0.00,,,-99.99,,2013-05-25 19:02:00,
2013-05-25 15:11:00,59.0,34.0,-100.00,NE,45,6.0,11.0,38,0.00,,,-99.99,,2013-05-25 19:11:00,
2013-05-25 15:22:00,60.0,33.0,-100.00,East,85,6.0,12.0,36,0.00,,,-99.99,,2013-05-25 19:22:00,
2013-05-25 15:32:00,60.0,33.0,-100.00,SSE,150,4.0,8.0,36,0.00,,,-99.99,,2013-05-25 19:32:00,
2013-05-25 15:42:00,61.0,34.0,-100.00,SE,130,4.0,7.0,35,0.00,,,-99.99,,2013-05-25 19:42:00,
2013-05-25 15:52:00,62.0,34.0,-100.00,SSW,205,2.0,7.0,35,0.00,,,-99.99,,2013-05-25 19:52:00,
2013-05-25 16:02:00,63.0,34.0,-100.00,North,0,1.0,6.0,34,0.00,,,-99.99,,2013-05-25 20:02:00,
2013-05-25 16:11:00,64.0,34.0,-100.00,WNW,295,2.0,6.0,32,0.00,,,-99.99,,2013-05-25 20:11:00,
2013-05-25 16:22:00,65.0,34.0,-100.00,NW,305,3.0,6.0,32,0.00,,,-99.99,,2013-05-25 20:22:00,
2013-05-25 16:32:00,65.0,35.0,-100.00,WNW,300,2.0,7.0,32,0.00,,,-99.99,,2013-05-25 20:32:00,
2013-05-25 16:42:00,65.0,35.0,-100.00,NW,305,1.0,7.0,33,0.00,,,-99.99,,2013-05-25 20:42:00,
2013-05-25 16:52:00,64.0,35.0,-100.00,SSW,210,2.0,6.0,33,0.00,,,-99.99,,2013-05-25 20:52:00,
2013-05-25 17:02:00,64.0,35.0,-100.00,West,270,1.0,6.0,33,0.00,,,-99.99,,2013-05-25 21:02:00,
2013-05-25 17:11:00,62.0,37.0,-100.00,NE,40,6.0,8.0,38,0.00,,,-99.99,,2013-05-25 21:11:00,
2013-05-25 17:21:00,62.0,36.0,-100.00,NNE,25,7.0,12.0,37,0.00,,,-99.99,,2013-05-25 21:21:00,
2013-05-25 17:33:00,62.0,36.0,-100.00,NNE,25,7.0,12.0,37,0.00,,,-99.99,,2013-05-25 21:33:00,
2013-05-25 17:43:00,62.0,36.0,-100.00,NNE,25,7.0,12.0,37,0.00,,,-99.99,,2013-05-25 21:43:00,
2013-05-25 17:53:00,65.0,36.0,-100.00,West,260,1.0,-999.0,34,0.00,,,-99.99,,2013-05-25 21:53:00,
2013-05-25 18:03:00,63.0,36.0,-100.00,East,90,3.0,5.0,36,0.00,,,-99.99,,2013-05-25 22:03:00,
2013-05-25 18:13:00,63.0,36.0,-100.00,SE,135,4.0,8.0,36,0.00,,,-99.99,,2013-05-25 22:13:00,
2013-05-25 18:23:00,63.0,35.0,-100.00,East,80,4.0,8.0,36,0.00,,,-99.99,,2013-05-25 22:23:00,
2013-05-25 18:32:00,63.0,36.0,-100.00,ENE,75,4.0,9.0,36,0.00,,,-99.99,,2013-05-25 22:32:00,
2013-05-25 18:42:00,63.0,36.0,-100.00,SE,130,3.0,9.0,36,0.00,,,-99.99,,2013-05-25 22:42:00,
2013-05-25 18:52:00,64.0,36.0,-100.00,East,90,1.0,6.0,35,0.00,,,-99.99,,2013-05-25 22:52:00,
2013-05-25 19:02:00,64.0,36.0,-100.00,East,90,1.0,6.0,35,0.00,,,-99.99,,2013-05-25 23:02:00,
2013-05-25 19:12:00,64.0,36.0,-100.00,East,90,1.0,6.0,35,0.00,,,-99.99,,2013-05-25 23:12:00,
2013-05-25 19:22:00,64.0,36.0,-100.00,East,90,1.0,6.0,35,0.00,,,-99.99,,2013-05-25 23:22:00,
2013-05-25 19:32:00,64.0,33.0,-100.00,NNE,25,2.0,-999.0,31,0.00,,,-99.99,,2013-05-25 23:32:00,
2013-05-25 19:42:00,64.0,31.0,-100.00,NW,310,6.0,9.0,29,0.00,,,-99.99,,2013-05-25 23:42:00,
2013-05-25 19:53:00,64.0,31.0,-100.00,NW,310,6.0,9.0,29,0.00,,,-99.99,,2013-05-25 23:53:00,
2013-05-25 20:02:00,64.0,33.0,-100.00,NW,305,4.0,-999.0,30,0.00,,,-99.99,,2013-05-26 00:02:00,
2013-05-25 20:11:00,64.0,32.0,-100.00,NW,305,4.0,7.0,30,0.00,,,-99.99,,2013-05-26 00:11:00,
2013-05-25 20:22:00,64.0,33.0,-100.00,WNW,300,2.0,6.0,31,0.00,,,-99.99,,2013-05-26 00:22:00,
2013-05-25 20:32:00,63.0,32.0,-100.00,NNE,15,3.0,6.0,32,0.00,,,-99.99,,2013-05-26 00:32:00,
2013-05-25 20:42:00,63.0,34.0,-100.00,NE,55,1.0,6.0,34,0.00,,,-99.99,,2013-05-26 00:42:00,
2013-05-25 20:52:00,62.0,35.0,-100.00,ENE,75,4.0,6.0,36,0.00,,,-99.99,,2013-05-26 00:52:00,
2013-05-25 21:01:00,62.0,36.0,-100.00,ENE,75,4.0,6.0,38,0.00,,,-99.99,,2013-05-26 01:01:00,
2013-05-25 21:11:00,61.0,37.0,-100.00,East,80,4.0,7.0,40,0.00,,,-99.99,,2013-05-26 01:11:00,
2013-05-25 21:21:00,61.0,37.0,-100.00,East,85,4.0,6.0,40,0.00,,,-99.99,,2013-05-26 01:21:00,
2013-05-25 21:32:00,61.0,37.0,-100.00,ESE,105,2.0,6.0,40,0.00,,,-99.99,,2013-05-26 01:32:00,
2013-05-25 21:42:00,61.0,37.0,-100.00,East,85,4.0,6.0,41,0.00,,,-99.99,,2013-05-26 01:42:00,
2013-05-25 21:52:00,60.0,38.0,-100.00,NE,45,7.0,12.0,44,0.00,,,-99.99,,2013-05-26 01:52:00,
2013-05-25 22:02:00,59.0,38.0,-100.00,ENE,60,11.0,14.0,44,0.00,,,-99.99,,2013-05-26 02:02:00,
2013-05-25 22:11:00,59.0,38.0,-100.00,ENE,70,9.0,12.0,44,0.00,,,-99.99,,2013-05-26 02:11:00,
2013-05-25 22:21:00,59.0,38.0,-100.00,ENE,65,6.0,10.0,46,0.00,,,-99.99,,2013-05-26 02:21:00,
2013-05-25 22:32:00,58.0,39.0,-100.00,ENE,75,7.0,12.0,49,0.00,,,-99.99,,2013-05-26 02:32:00,
2013-05-25 22:42:00,58.0,41.0,-100.00,ENE,60,14.0,22.0,55,0.00,,,-99.99,,2013-05-26 02:42:00,
2013-05-25 22:52:00,57.0,42.0,-100.00,ENE,60,16.0,24.0,56,0.00,,,-99.99,,2013-05-26 02:52:00,
2013-05-25 23:01:00,57.0,41.0,-100.00,ENE,65,13.0,21.0,56,0.00,,,-99.99,,2013-05-26 03:01:00,
2013-05-25 23:11:00,56.0,41.0,-100.00,East,80,9.0,17.0,55,0.00,,,-99.99,,2013-05-26 03:11:00,
2013-05-25 23:22:00,56.0,40.0,-100.00,ENE,65,9.0,17.0,54,0.00,,,-99.99,,2013-05-26 03:22:00,
2013-05-25 23:33:00,56.0,39.0,-100.00,East,80,9.0,15.0,52,0.00,,,-99.99,,2013-05-26 03:33:00,
2013-05-25 23:43:00,56.0,39.0,-100.00,East,85,8.0,14.0,52,0.00,,,-99.99,,2013-05-26 03:43:00,
2013-05-25 23:53:00,56.0,39.0,-100.00,East,80,6.0,11.0,53,0.00,,,-99.99,,2013-05-26 03:53:00,